createdAt,value
2022-10-22T00:01:27.386Z,100518.53
2022-10-22T00:04:34.379Z,100517.53
2022-10-22T00:07:37.563Z,100515.75
2022-10-22T00:10:39.696Z,100513.28
2022-10-22T00:13:41.722Z,100517.16
2022-10-22T00:16:43.725Z,100517.78
2022-10-22T00:19:45.610Z,100516.59
2022-10-22T00:22:47.547Z,100517.72
2022-10-22T00:25:49.388Z,100517.81
2022-10-22T00:28:51.280Z,100516.88
2022-10-22T00:31:53.145Z,100516.88
2022-10-22T00:34:54.971Z,100505.25
2022-10-22T00:37:56.809Z,100506.44
2022-10-22T00:40:58.706Z,100502.81
2022-10-22T00:44:01.470Z,100491.25
2022-10-22T00:47:03.418Z,100495.34
2022-10-22T00:50:06.673Z,100492.34
2022-10-22T00:53:13.309Z,100493.28
2022-10-22T00:56:15.190Z,100488.72
2022-10-22T00:59:17.122Z,100481.56
2022-10-22T01:02:19.157Z,100487.22
2022-10-22T01:05:21.431Z,100485.38
2022-10-22T01:08:46.474Z,100494.37
2022-10-22T01:11:51.344Z,100503.50
2022-10-22T01:14:58.973Z,100507.28
2022-10-22T01:18:08.230Z,100490.31
2022-10-22T01:21:30.789Z,100489.47
2022-10-22T01:24:32.806Z,100494.81
2022-10-22T01:27:43.747Z,100487.94
2022-10-22T01:30:45.781Z,100494.87
2022-10-22T01:33:47.617Z,100488.47
2022-10-22T01:36:49.509Z,100494.41
2022-10-22T01:39:51.315Z,100499.56
2022-10-22T01:42:56.766Z,100494.47
2022-10-22T01:45:59.274Z,100499.75
2022-10-22T01:49:16.637Z,100485.78
2022-10-22T01:52:26.529Z,100475.00
2022-10-22T01:55:36.393Z,100476.38
2022-10-22T01:58:57.182Z,100464.00
2022-10-22T02:02:05.091Z,100457.72
2022-10-22T02:05:08.393Z,100464.16
2022-10-22T02:08:18.310Z,100463.28
2022-10-22T02:11:20.391Z,100464.31
2022-10-22T02:14:22.341Z,100468.66
2022-10-22T02:17:24.269Z,100468.34
2022-10-22T02:20:27.508Z,100461.38
2022-10-22T02:23:29.415Z,100467.78
2022-10-22T02:26:39.655Z,100476.38
2022-10-22T02:29:43.988Z,100475.38
2022-10-22T02:32:56.832Z,100478.09
2022-10-22T02:35:58.697Z,100479.69
2022-10-22T02:39:00.678Z,100481.06
2022-10-22T02:42:02.711Z,100476.75
2022-10-22T02:45:04.960Z,100470.94
2022-10-22T02:48:06.942Z,100475.50
2022-10-22T02:51:08.775Z,100474.59
2022-10-22T02:54:10.649Z,100478.28
2022-10-22T02:57:12.760Z,100478.94
2022-10-22T03:00:14.790Z,100484.69
2022-10-22T03:03:16.601Z,100482.78
2022-10-22T03:06:18.440Z,100490.44
2022-10-22T03:09:22.761Z,100492.53
2022-10-22T03:12:26.624Z,100498.19
2022-10-22T03:18:35.254Z,100490.25
2022-10-22T03:21:40.292Z,100490.34
2022-10-22T03:24:42.831Z,100480.75
2022-10-22T03:27:44.727Z,100481.63
2022-10-22T03:30:46.627Z,100479.31
2022-10-22T03:33:48.467Z,100483.63
2022-10-22T03:36:50.359Z,100469.41
2022-10-22T03:39:52.350Z,100471.97
2022-10-22T03:42:54.182Z,100450.09
2022-10-22T03:45:55.998Z,100434.47
2022-10-22T03:48:57.801Z,100441.13
2022-10-22T03:52:05.249Z,100427.09
2022-10-22T03:55:07.689Z,100421.44
2022-10-22T03:58:09.491Z,100424.84
2022-10-22T04:01:12.082Z,100446.31
2022-10-22T04:04:13.974Z,100446.16
2022-10-22T04:07:15.933Z,100445.09
2022-10-22T04:10:17.846Z,100459.78
2022-10-22T04:13:19.635Z,100467.13
2022-10-22T04:16:22.606Z,100460.28
2022-10-22T04:19:25.746Z,100466.63
2022-10-22T04:22:27.607Z,100453.06
2022-10-22T04:25:29.854Z,100458.06
2022-10-22T04:28:31.708Z,100454.22
2022-10-22T04:31:33.616Z,100455.28
2022-10-22T04:34:35.625Z,100464.53
2022-10-22T04:37:37.797Z,100447.28
2022-10-22T04:40:40.035Z,100456.78
2022-10-22T04:43:42.158Z,100451.75
2022-10-22T04:46:44.155Z,100446.81
2022-10-22T04:49:45.978Z,100458.69
2022-10-22T04:52:47.831Z,100449.06
2022-10-22T04:55:49.693Z,100453.47
2022-10-22T04:58:53.381Z,100440.41
2022-10-22T05:01:55.190Z,100451.97
2022-10-22T05:04:57.059Z,100449.47
2022-10-22T05:07:59.013Z,100440.50
2022-10-22T05:11:00.922Z,100441.34
2022-10-22T05:14:04.502Z,100444.34
2022-10-22T05:17:06.552Z,100459.31
2022-10-22T05:20:08.733Z,100442.56
2022-10-22T05:23:10.578Z,100437.59
2022-10-22T05:26:13.133Z,100448.34
2022-10-22T05:29:15.024Z,100459.75
2022-10-22T05:32:16.974Z,100449.44
2022-10-22T05:35:18.822Z,100456.22
2022-10-22T05:38:20.708Z,100456.38
2022-10-22T05:41:23.206Z,100460.00
2022-10-22T05:44:24.997Z,100465.81
2022-10-22T05:47:28.730Z,100452.88
2022-10-22T05:50:30.748Z,100447.50
2022-10-22T05:53:33.191Z,100454.03
2022-10-22T05:56:35.291Z,100468.47
2022-10-22T05:59:37.126Z,100452.66
2022-10-22T06:02:39.210Z,100469.22
2022-10-22T06:05:41.324Z,100467.75
2022-10-22T06:08:43.328Z,100476.78
2022-10-22T06:11:46.156Z,100486.50
2022-10-22T06:14:47.995Z,100487.25
2022-10-22T06:17:49.843Z,100485.91
2022-10-22T06:20:51.867Z,100496.84
2022-10-22T06:23:55.403Z,100503.03
2022-10-22T06:26:57.329Z,100498.75
2022-10-22T06:29:59.246Z,100487.50
2022-10-22T06:33:01.086Z,100496.56
2022-10-22T06:36:07.759Z,100492.22
2022-10-22T06:39:11.362Z,100491.03
2022-10-22T06:42:13.181Z,100478.59
2022-10-22T06:45:15.026Z,100493.78
2022-10-22T06:48:17.035Z,100498.28
2022-10-22T06:51:19.393Z,100502.34
2022-10-22T06:54:21.698Z,100520.50
2022-10-22T06:57:23.692Z,100515.81
2022-10-22T07:00:25.585Z,100516.28
2022-10-22T07:03:27.646Z,100506.94
2022-10-22T07:06:29.679Z,100492.50
2022-10-22T07:09:31.518Z,100493.47
2022-10-22T07:12:33.861Z,100495.16
2022-10-22T07:15:35.730Z,100496.78
2022-10-22T07:18:38.369Z,100497.47
2022-10-22T07:21:40.437Z,100489.31
2022-10-22T07:24:42.250Z,100491.41
2022-10-22T07:27:44.183Z,100497.47
2022-10-22T07:30:46.048Z,100499.41
2022-10-22T07:33:48.022Z,100495.00
2022-10-22T07:36:50.019Z,100497.34
2022-10-22T07:39:52.117Z,100490.31
2022-10-22T07:42:53.961Z,100492.28
2022-10-22T07:45:56.029Z,100483.31
2022-10-22T07:48:58.265Z,100491.88
2022-10-22T07:52:00.198Z,100481.06
2022-10-22T07:55:02.132Z,100488.47
2022-10-22T07:58:04.549Z,100489.50
2022-10-22T08:01:06.550Z,100488.72
2022-10-22T08:04:09.819Z,100507.87
2022-10-22T08:07:11.718Z,100502.63
2022-10-22T08:10:13.625Z,100495.69
2022-10-22T08:13:15.506Z,100488.00
2022-10-22T08:16:17.313Z,100489.50
2022-10-22T08:19:21.321Z,100488.03
2022-10-22T08:22:23.183Z,100507.94
2022-10-22T08:25:25.263Z,100483.00
2022-10-22T08:28:28.864Z,100480.25
2022-10-22T08:31:30.890Z,100491.31
2022-10-22T08:34:33.104Z,100488.72
2022-10-22T08:37:34.993Z,100496.03
2022-10-22T08:40:38.892Z,100486.16
2022-10-22T08:43:47.099Z,100477.13
2022-10-22T08:46:51.197Z,100486.59
2022-10-22T08:49:53.093Z,100494.31
2022-10-22T08:52:55.611Z,100493.38
2022-10-22T08:55:57.418Z,100492.22
2022-10-22T08:58:59.256Z,100484.50
2022-10-22T09:02:01.330Z,100494.53
2022-10-22T09:05:12.892Z,100494.84
2022-10-22T09:08:16.172Z,100494.97
2022-10-22T09:11:18.193Z,100481.47
2022-10-22T09:14:21.458Z,100490.50
2022-10-22T09:17:49.741Z,100492.06
2022-10-22T09:21:03.880Z,100502.06
2022-10-22T09:24:05.901Z,100491.47
2022-10-22T09:27:12.154Z,100492.09
2022-10-22T09:30:21.361Z,100488.44
2022-10-22T09:33:27.723Z,100485.31
2022-10-22T09:36:30.227Z,100489.81
2022-10-22T09:39:33.017Z,100498.34
2022-10-22T09:42:35.238Z,100504.44
2022-10-22T09:45:37.092Z,100514.81
2022-10-22T09:48:42.508Z,100503.41
2022-10-22T09:51:51.346Z,100496.88
2022-10-22T09:54:53.242Z,100510.06
2022-10-22T09:57:55.798Z,100500.19
2022-10-22T10:00:58.553Z,100485.91
2022-10-22T10:04:11.057Z,100489.22
2022-10-22T10:07:17.723Z,100489.28
2022-10-22T10:10:21.556Z,100486.00
2022-10-22T10:13:35.861Z,100487.66
2022-10-22T10:16:56.170Z,100487.28
2022-10-22T10:20:01.491Z,100477.63
2022-10-22T10:23:25.478Z,100471.66
2022-10-22T10:26:33.514Z,100465.28
2022-10-22T10:29:54.114Z,100473.41
2022-10-22T10:33:22.413Z,100478.16
2022-10-22T10:36:27.709Z,100473.50
2022-10-22T10:39:35.864Z,100472.09
2022-10-22T10:42:41.008Z,100474.00
2022-10-22T10:45:47.071Z,100467.69
2022-10-22T10:48:51.310Z,100473.12
2022-10-22T10:52:11.633Z,100478.03
2022-10-22T10:55:15.252Z,100475.09
2022-10-22T10:58:31.191Z,100484.84
2022-10-22T11:01:45.413Z,100489.00
2022-10-22T11:05:13.510Z,100489.75
2022-10-22T11:08:17.618Z,100502.50
2022-10-22T11:11:28.338Z,100488.13
2022-10-22T11:14:33.237Z,100482.94
2022-10-22T11:17:43.201Z,100476.78
2022-10-22T11:21:03.939Z,100483.12
2022-10-22T11:24:24.707Z,100480.72
2022-10-22T11:27:37.514Z,100468.19
2022-10-22T11:30:39.393Z,100465.47
2022-10-22T11:34:05.121Z,100458.69
2022-10-22T11:37:17.478Z,100456.34
2022-10-22T11:40:20.860Z,100449.59
2022-10-22T11:43:46.203Z,100443.81
2022-10-22T11:46:58.288Z,100444.31
2022-10-22T11:50:17.419Z,100443.03
2022-10-22T11:53:25.472Z,100433.56
2022-10-22T11:56:28.350Z,100428.97
2022-10-22T11:59:52.453Z,100423.97
2022-10-22T12:03:02.371Z,100429.28
2022-10-22T12:06:04.585Z,100430.72
2022-10-22T12:09:07.236Z,100438.94
2022-10-22T12:12:15.604Z,100434.66
2022-10-22T12:15:21.325Z,100423.28
2022-10-22T12:18:24.226Z,100419.69
2022-10-22T12:21:26.347Z,100432.09
2022-10-22T12:24:32.206Z,100429.06
2022-10-22T12:27:35.146Z,100425.34
2022-10-22T12:30:37.019Z,100400.31
2022-10-22T12:33:38.888Z,100398.56
2022-10-22T12:36:40.751Z,100398.56
2022-10-22T12:39:42.743Z,100397.13
2022-10-22T12:42:48.631Z,100407.94
2022-10-22T12:45:50.590Z,100402.56
2022-10-22T12:48:52.672Z,100405.41
2022-10-22T12:51:54.846Z,100412.81
2022-10-22T12:54:56.690Z,100422.09
2022-10-22T12:57:58.762Z,100423.94
2022-10-22T13:01:03.624Z,100429.66
2022-10-22T13:04:07.375Z,100415.38
2022-10-22T13:07:12.296Z,100415.56
2022-10-22T13:10:22.075Z,100419.50
2022-10-22T13:13:31.041Z,100428.78
2022-10-22T13:16:33.381Z,100422.09
2022-10-22T13:19:47.711Z,100423.63
2022-10-22T13:22:53.435Z,100412.88
2022-10-22T13:25:59.572Z,100416.19
2022-10-22T13:29:01.888Z,100424.78
2022-10-22T13:32:03.790Z,100430.59
2022-10-22T13:35:05.845Z,100423.56
2022-10-22T13:38:15.265Z,100420.94
2022-10-22T13:41:21.961Z,100412.47
2022-10-22T13:44:23.805Z,100418.56
2022-10-22T13:47:29.167Z,100428.59
2022-10-22T13:50:30.957Z,100423.75
2022-10-22T13:53:32.962Z,100439.59
2022-10-22T13:56:34.932Z,100438.56
2022-10-22T13:59:36.832Z,100431.59
2022-10-22T14:02:39.313Z,100437.19
2022-10-22T14:05:41.370Z,100432.88
2022-10-22T14:08:44.085Z,100430.69
2022-10-22T14:11:45.995Z,100426.75
2022-10-22T14:14:47.910Z,100437.75
2022-10-22T14:17:52.449Z,100438.47
2022-10-22T14:20:58.649Z,100435.19
2022-10-22T14:24:00.642Z,100448.16
2022-10-22T14:27:02.515Z,100447.34
2022-10-22T14:30:04.855Z,100439.25
2022-10-22T14:33:17.593Z,100441.03
2022-10-22T14:36:19.520Z,100428.34
2022-10-22T14:39:21.707Z,100424.13
2022-10-22T14:42:23.528Z,100428.97
2022-10-22T14:45:26.241Z,100439.00
2022-10-22T14:48:28.187Z,100428.72
2022-10-22T14:51:30.200Z,100439.44
2022-10-22T14:54:33.199Z,100435.94
2022-10-22T14:57:35.111Z,100442.84
2022-10-22T15:00:37.264Z,100438.81
2022-10-22T15:03:39.131Z,100447.34
2022-10-22T15:06:41.154Z,100451.59
2022-10-22T15:09:42.999Z,100446.91
2022-10-22T15:12:44.925Z,100444.69
2022-10-22T15:15:46.821Z,100433.94
2022-10-22T15:18:48.736Z,100443.56
2022-10-22T15:21:50.825Z,100449.47
2022-10-22T15:24:53.685Z,100443.66
2022-10-22T15:27:59.640Z,100447.66
2022-10-22T15:31:06.987Z,100455.28
2022-10-22T15:34:08.827Z,100449.56
2022-10-22T15:37:11.619Z,100447.75
2022-10-22T15:40:13.725Z,100446.31
2022-10-22T15:43:15.519Z,100453.97
2022-10-22T15:46:18.048Z,100461.28
2022-10-22T15:49:19.859Z,100455.88
2022-10-22T15:52:21.882Z,100462.84
2022-10-22T15:55:23.838Z,100470.91
2022-10-22T15:58:25.935Z,100473.09
2022-10-22T16:01:27.866Z,100484.56
2022-10-22T16:04:29.864Z,100488.75
2022-10-22T16:07:31.696Z,100504.19
2022-10-22T16:10:33.584Z,100506.16
2022-10-22T16:13:37.285Z,100510.63
2022-10-22T16:16:42.730Z,100520.50
2022-10-22T16:19:44.902Z,100511.75
2022-10-22T16:22:49.532Z,100526.25
2022-10-22T16:25:51.436Z,100519.41
2022-10-22T16:28:53.219Z,100528.37
2022-10-22T16:31:55.289Z,100549.94
2022-10-22T16:34:57.208Z,100553.47
2022-10-22T16:37:59.097Z,100559.69
2022-10-22T16:41:10.621Z,100564.69
2022-10-22T16:44:13.375Z,100577.31
2022-10-22T16:47:15.447Z,100583.34
2022-10-22T16:50:17.505Z,100588.81
2022-10-22T16:53:19.370Z,100599.47
2022-10-22T16:56:21.371Z,100598.09
2022-10-22T16:59:23.239Z,100602.00
2022-10-22T17:02:25.201Z,100605.16
2022-10-22T17:05:27.139Z,100603.69
2022-10-22T17:08:28.923Z,100605.06
2022-10-22T17:11:39.055Z,100612.88
2022-10-22T17:14:42.227Z,100613.69
2022-10-22T17:17:48.398Z,100609.66
2022-10-22T17:20:50.389Z,100594.47
2022-10-22T17:23:58.592Z,100600.16
2022-10-22T17:27:00.766Z,100593.88
2022-10-22T17:30:02.899Z,100585.19
2022-10-22T17:33:08.107Z,100603.56
2022-10-22T17:36:11.920Z,100603.34
2022-10-22T17:39:15.730Z,100599.91
2022-10-22T17:42:17.776Z,100606.87
2022-10-22T17:45:20.053Z,100615.50
2022-10-22T17:48:21.942Z,100602.78
2022-10-22T17:51:23.998Z,100621.25
2022-10-22T17:54:25.845Z,100630.94
2022-10-22T17:57:27.644Z,100643.06
2022-10-22T18:00:32.607Z,100633.66
2022-10-22T18:03:34.922Z,100616.50
2022-10-22T18:06:36.982Z,100629.34
2022-10-22T18:09:39.125Z,100635.22
2022-10-22T18:12:41.209Z,100639.34
2022-10-22T18:15:43.234Z,100637.44
2022-10-22T18:18:46.714Z,100645.94
2022-10-22T18:21:48.892Z,100650.25
2022-10-22T18:24:50.762Z,100660.00
2022-10-22T18:27:52.783Z,100645.16
2022-10-22T18:30:54.661Z,100648.38
2022-10-22T18:33:56.916Z,100657.81
2022-10-22T18:36:58.762Z,100659.69
2022-10-22T18:40:00.590Z,100666.12
2022-10-22T18:43:02.917Z,100661.56
2022-10-22T18:46:07.986Z,100675.47
2022-10-22T18:49:11.705Z,100682.28
2022-10-22T18:52:13.544Z,100685.81
2022-10-22T18:55:15.507Z,100684.78
2022-10-22T18:58:18.140Z,100686.53
2022-10-22T19:01:21.272Z,100679.06
2022-10-22T19:04:23.178Z,100668.06
2022-10-22T19:07:25.134Z,100676.72
2022-10-22T19:10:26.991Z,100680.84
2022-10-22T19:13:28.887Z,100696.81
2022-10-22T19:16:30.813Z,100697.47
2022-10-22T19:19:32.919Z,100685.56
2022-10-22T19:22:34.918Z,100688.06
2022-10-22T19:25:36.938Z,100696.09
2022-10-22T19:28:39.045Z,100689.72
2022-10-22T19:31:41.695Z,100686.25
2022-10-22T19:34:44.368Z,100697.56
2022-10-22T19:37:48.351Z,100702.84
2022-10-22T19:40:51.368Z,100706.22
2022-10-22T19:43:53.634Z,100709.78
2022-10-22T19:46:55.483Z,100721.94
2022-10-22T19:49:57.462Z,100721.41
2022-10-22T19:52:59.726Z,100729.25
2022-10-22T19:56:02.097Z,100731.50
2022-10-22T19:59:05.852Z,100732.19
2022-10-22T20:02:08.657Z,100736.75
2022-10-22T20:05:10.641Z,100740.84
2022-10-22T20:08:12.747Z,100740.31
2022-10-22T20:11:18.755Z,100745.19
2022-10-22T20:14:20.752Z,100751.09
2022-10-22T20:17:22.667Z,100757.78
2022-10-22T20:20:26.554Z,100761.97
2022-10-22T20:23:28.750Z,100774.31
2022-10-22T20:26:31.754Z,100766.84
2022-10-22T20:29:36.372Z,100764.06
2022-10-22T20:32:41.015Z,100767.84
2022-10-22T20:35:43.249Z,100767.44
2022-10-22T20:38:47.929Z,100766.03
2022-10-22T20:41:50.207Z,100771.28
2022-10-22T20:44:52.108Z,100766.06
2022-10-22T20:48:02.001Z,100763.28
2022-10-22T20:51:05.054Z,100763.06
2022-10-22T20:54:07.655Z,100778.59
2022-10-22T20:57:10.455Z,100785.53
2022-10-22T21:00:12.774Z,100791.47
2022-10-22T21:03:15.040Z,100791.81
2022-10-22T21:06:17.040Z,100790.97
2022-10-22T21:09:19.108Z,100790.91
2022-10-22T21:12:21.110Z,100784.81
2022-10-22T21:15:22.957Z,100787.66
2022-10-22T21:18:25.004Z,100789.81
2022-10-22T21:21:27.032Z,100785.53
2022-10-22T21:24:28.895Z,100784.03
2022-10-22T21:27:30.803Z,100795.28
2022-10-22T21:30:32.642Z,100796.63
2022-10-22T21:33:37.904Z,100806.22
2022-10-22T21:36:40.598Z,100802.06
2022-10-22T21:39:42.553Z,100795.19
2022-10-22T21:42:44.738Z,100799.22
2022-10-22T21:45:46.858Z,100786.91
2022-10-22T21:48:58.451Z,100787.84
2022-10-22T21:52:00.672Z,100770.47
2022-10-22T21:55:02.513Z,100781.38
2022-10-22T21:58:04.550Z,100775.47
2022-10-22T22:01:06.442Z,100772.13
2022-10-22T22:04:08.357Z,100787.03
2022-10-22T22:07:10.229Z,100780.03
2022-10-22T22:10:12.035Z,100788.78
2022-10-22T22:13:13.849Z,100789.31
2022-10-22T22:16:17.225Z,100777.22
2022-10-22T22:19:19.086Z,100778.28
2022-10-22T22:22:20.948Z,100779.66
2022-10-22T22:25:22.871Z,100795.69
2022-10-22T22:28:24.699Z,100796.47
2022-10-22T22:31:27.996Z,100795.72
2022-10-22T22:34:29.919Z,100809.78
2022-10-22T22:37:31.768Z,100816.97
2022-10-22T22:40:33.945Z,100807.78
2022-10-22T22:43:36.505Z,100813.34
2022-10-22T22:46:38.595Z,100812.66
2022-10-22T22:49:40.776Z,100809.59
2022-10-22T22:52:42.758Z,100799.25
2022-10-22T22:55:44.860Z,100818.44
2022-10-22T22:58:46.727Z,100824.25
2022-10-22T23:01:49.263Z,100840.44
2022-10-22T23:04:51.140Z,100837.84
2022-10-22T23:07:53.035Z,100849.63
2022-10-22T23:10:54.896Z,100838.75
2022-10-22T23:13:57.717Z,100845.25
2022-10-22T23:16:59.540Z,100836.72
2022-10-22T23:20:01.458Z,100840.16
2022-10-22T23:23:06.127Z,100844.50
2022-10-22T23:26:09.270Z,100841.50
2022-10-22T23:29:12.345Z,100849.59
2022-10-22T23:32:17.133Z,100847.47
2022-10-22T23:35:19.089Z,100845.19
2022-10-22T23:38:21.018Z,100845.28
2022-10-22T23:41:22.931Z,100839.91
2022-10-22T23:44:24.951Z,100841.75
2022-10-22T23:47:26.785Z,100839.03
2022-10-22T23:50:28.846Z,100842.25
2022-10-22T23:53:30.730Z,100851.41
2022-10-22T23:56:32.900Z,100848.09
2022-10-22T23:59:34.998Z,100845.56
